JBU135 MDPC-KLAX
Flight info
| Callsign | JBU135 |
|---|---|
| Flight time | N/A |
| Altitude | 28000 |
| Route | MALVN2W MALVN DCT ALBBE Y589 MADIZ DCT REMIS/N0468F300 Q100 LEV J86 PEKON/N0465F320 J86 ELP J50 BLH |
| Aircraft | A321/M-SDE3FGHIRWY/LB1 |
Departure
| Time | N/A |
|---|---|
| Airport | Punta Cana International Airport (MDPC) |
Arrival
| Time | 2026-04-21 18:17 |
|---|---|
| Airport | Los Angeles International Airport (KLAX) |
| Time | Latitude | Longitude | Altitude | Speed | Heading |
|---|---|---|---|---|---|
| 2026-04-21 18:10 | 33.83165 | -117.94512 | 7636 ft | 298 kts | 307° |
| 2026-04-21 18:10 | 33.84365 | -117.96541 | 7191 ft | 297 kts | 307° |
| 2026-04-21 18:11 | 33.85557 | -117.98557 | 6786 ft | 294 kts | 307° |
| 2026-04-21 18:11 | 33.86735 | -118.00554 | 6409 ft | 291 kts | 307° |
| 2026-04-21 18:11 | 33.87902 | -118.02533 | 6031 ft | 289 kts | 307° |
| 2026-04-21 18:11 | 33.89061 | -118.04493 | 5650 ft | 286 kts | 307° |
| 2026-04-21 18:12 | 33.90212 | -118.06439 | 5279 ft | 284 kts | 307° |
| 2026-04-21 18:12 | 33.91351 | -118.08365 | 4899 ft | 281 kts | 307° |
| 2026-04-21 18:12 | 33.92479 | -118.10275 | 4536 ft | 279 kts | 307° |
| 2026-04-21 18:12 | 33.93595 | -118.12173 | 4176 ft | 276 kts | 307° |
| 2026-04-21 18:13 | 33.94704 | -118.14062 | 3822 ft | 274 kts | 305° |
| 2026-04-21 18:13 | 33.95523 | -118.16082 | 3634 ft | 267 kts | 287° |
| 2026-04-21 18:13 | 33.95744 | -118.18284 | 3343 ft | 266 kts | 268° |
| 2026-04-21 18:13 | 33.95538 | -118.20496 | 2998 ft | 265 kts | 265° |
| 2026-04-21 18:14 | 33.95082 | -118.24823 | 2139 ft | 255 kts | 265° |
| 2026-04-21 18:14 | 33.94877 | -118.26892 | 1804 ft | 237 kts | 264° |
| 2026-04-21 18:14 | 33.94672 | -118.28774 | 1591 ft | 219 kts | 265° |
| 2026-04-21 18:15 | 33.94514 | -118.30564 | 1412 ft | 210 kts | 266° |
| 2026-04-21 18:15 | 33.94337 | -118.32184 | 1336 ft | 183 kts | 265° |
| 2026-04-21 18:15 | 33.94187 | -118.33646 | 1196 ft | 168 kts | 266° |
| 2026-04-21 18:15 | 33.94056 | -118.35017 | 1014 ft | 162 kts | 266° |
| 2026-04-21 18:16 | 33.93935 | -118.36350 | 738 ft | 159 kts | 266° |
| 2026-04-21 18:16 | 33.93802 | -118.37649 | 469 ft | 158 kts | 265° |
| 2026-04-21 18:16 | 33.93674 | -118.38959 | 173 ft | 157 kts | 263° |
| 2026-04-21 18:16 | 33.93538 | -118.40251 | 101 ft | 155 kts | 264° |
| 2026-04-21 18:17 | 33.93413 | -118.41536 | 95 ft | 146 kts | 264° |
| 2026-04-21 18:17 | 33.93348 | -118.42134 | 95 ft | 22 kts | 261° |
| 2026-04-21 18:17 | 33.93343 | -118.42178 | 93 ft | 0 kts | 261° |